Time;durP1;ratioP1;P1;durP2;ratioP2;P2;SDS_P1;SDS_P2;PMS_P1;PMS_P2;Temp;Humidity;BMP_temperature;BMP_pressure;BME280_temperature;BME280_humidity;BME280_pressure;Samples;Min_cycle;Max_cycle;Signal;HPM_P1;HPM_P2
2023/01/10 00:02:34;;;;;;;0.15;0.15;;;;;;;3.25;100.00;96025.22;5054173;28;20040;-75
2023/01/10 00:05:19;;;;;;;0.20;0.20;;;;;;;3.22;100.00;96030.97;5056697;28;20048;-77
2023/01/10 00:08:07;;;;;;;0.20;0.20;;;;;;;3.29;100.00;96043.13;5053978;28;20055;-76
2023/01/10 00:10:53;;;;;;;0.20;0.20;;;;;;;3.29;100.00;96037.03;5054539;28;20264;-76
2023/01/10 00:13:39;;;;;;;0.20;0.20;;;;;;;3.38;100.00;96050.81;5054019;28;20032;-77
2023/01/10 00:16:25;;;;;;;0.20;0.20;;;;;;;3.30;100.00;96060.59;5054494;28;20106;-76
2023/01/10 00:19:11;;;;;;;0.10;0.10;;;;;;;3.30;100.00;96063.25;5054923;28;20040;-76
2023/01/10 00:22:01;;;;;;;0.20;0.20;;;;;;;3.24;100.00;96068.56;5039660;28;20036;-75
2023/01/10 00:24:47;;;;;;;0.20;0.20;;;;;;;3.27;100.00;96073.47;5056368;28;20120;-77
2023/01/10 00:27:34;;;;;;;0.20;0.20;;;;;;;3.28;100.00;96080.38;5056305;28;20481;-78
2023/01/10 00:30:20;;;;;;;0.20;0.20;;;;;;;3.23;100.00;96077.53;5055385;28;20551;-76
2023/01/10 00:33:07;;;;;;;0.20;0.20;;;;;;;3.23;100.00;96096.84;5054013;28;20210;-75
2023/01/10 00:35:53;;;;;;;0.20;0.20;;;;;;;3.22;100.00;96097.88;5054588;28;20587;-77
2023/01/10 00:38:39;;;;;;;0.20;0.20;;;;;;;3.23;100.00;96115.38;5042590;28;20036;-75
2023/01/10 00:44:29;;;;;;;0.20;0.20;;;;;;;3.24;100.00;96118.81;5051700;28;20040;-76
2023/01/10 00:47:14;;;;;;;0.20;0.20;;;;;;;3.22;100.00;96118.22;5054637;28;20505;-77
2023/01/10 00:50:00;;;;;;;0.20;0.20;;;;;;;3.22;100.00;96126.16;5051061;28;20489;-74
2023/01/10 00:52:46;;;;;;;0.20;0.20;;;;;;;3.18;100.00;96144.25;5053935;28;20064;-77
2023/01/10 00:55:34;;;;;;;0.20;0.20;;;;;;;3.19;100.00;96153.00;5055013;28;20515;-77
2023/01/10 00:58:23;;;;;;;0.20;0.20;;;;;;;3.16;100.00;96150.78;5053133;28;20068;-76
2023/01/10 01:01:09;;;;;;;0.20;0.20;;;;;;;3.18;100.00;96152.19;5050450;28;20388;-76
2023/01/10 01:03:55;;;;;;;0.10;0.10;;;;;;;3.13;100.00;96159.16;5052321;28;20139;-76
2023/01/10 01:06:43;;;;;;;0.20;0.20;;;;;;;3.13;100.00;96177.66;5052585;28;20163;-75
2023/01/10 01:09:29;;;;;;;0.20;0.20;;;;;;;3.11;100.00;96187.59;5031610;28;20079;-75
2023/01/10 01:12:15;;;;;;;0.20;0.20;;;;;;;3.07;100.00;96189.88;5037996;28;20044;-75
2023/01/10 01:15:01;;;;;;;0.20;0.20;;;;;;;3.04;100.00;96187.66;5054333;28;20037;-75
2023/01/10 01:17:47;;;;;;;0.20;0.20;;;;;;;3.00;100.00;96176.66;5055691;28;20643;-77
2023/01/10 01:20:33;;;;;;;0.20;0.20;;;;;;;3.11;100.00;96192.91;5052684;28;20044;-75
2023/01/10 01:23:22;;;;;;;0.20;0.20;;;;;;;3.14;100.00;96200.44;5054160;28;20041;-75
2023/01/10 01:26:09;;;;;;;0.20;0.20;;;;;;;3.15;100.00;96215.28;5052627;28;20044;-75
2023/01/10 01:28:55;;;;;;;0.15;0.15;;;;;;;3.06;100.00;96222.63;5053139;28;20053;-75
2023/01/10 01:31:41;;;;;;;0.20;0.20;;;;;;;2.99;100.00;96212.06;5053409;28;20040;-73
2023/01/10 01:34:27;;;;;;;0.13;0.13;;;;;;;2.97;100.00;96227.31;5053706;28;20044;-75
2023/01/10 01:37:12;;;;;;;0.20;0.20;;;;;;;2.92;100.00;96223.66;5054132;28;20197;-75
2023/01/10 01:39:58;;;;;;;0.10;0.10;;;;;;;2.82;100.00;96221.44;5052545;28;20047;-74
2023/01/10 01:42:45;;;;;;;0.17;0.17;;;;;;;2.85;100.00;96247.44;5055203;28;20037;-73
2023/01/10 01:45:37;;;;;;;0.10;0.10;;;;;;;2.91;100.00;96251.09;5052579;28;20046;-74
2023/01/10 01:48:28;;;;;;;;;;;;;;;2.98;100.00;96260.66;5054846;28;20515;-73
2023/01/10 01:51:20;;;;;;;0.10;0.10;;;;;;;3.00;100.00;96263.91;5050110;28;20603;-75
2023/01/10 01:54:10;;;;;;;0.10;0.10;;;;;;;3.00;100.00;96268.38;5053325;28;20901;-74
2023/01/10 01:57:12;;;;;;;0.20;0.20;;;;;;;3.00;100.00;96277.13;5052848;28;20052;-75
2023/01/10 01:59:59;;;;;;;0.20;0.20;;;;;;;2.90;100.00;96271.44;5051388;28;20051;-75
2023/01/10 02:02:50;;;;;;;0.20;0.20;;;;;;;2.95;100.00;96294.59;5053792;28;20038;-75
2023/01/10 02:05:39;;;;;;;0.20;0.20;;;;;;;2.95;100.00;96303.34;5049208;28;20486;-76
2023/01/10 02:08:25;;;;;;;0.20;0.20;;;;;;;3.03;100.00;96291.75;5054388;28;20037;-73
2023/01/10 02:11:11;;;;;;;0.10;0.10;;;;;;;3.01;100.00;96291.16;5052104;28;20283;-76
2023/01/10 02:13:58;;;;;;;0.20;0.20;;;;;;;3.05;100.00;96303.75;5048394;28;20219;-76
2023/01/10 02:16:44;;;;;;;0.20;0.20;;;;;;;2.99;100.00;96301.13;5054508;28;20522;-74
2023/01/10 02:19:51;;;;;;;0.20;0.20;;;;;;;3.07;100.00;96304.38;5053873;28;20344;-74
2023/01/10 02:23:04;;;;;;;0.20;0.20;;;;;;;3.11;100.00;96303.94;5053125;28;20032;-74
2023/01/10 02:26:02;;;;;;;0.20;0.20;;;;;;;3.06;100.00;96318.59;5052127;28;20075;-76
2023/01/10 02:29:09;;;;;;;0.10;0.10;;;;;;;3.06;100.00;96323.88;5040363;28;20036;-75
2023/01/10 02:32:17;;;;;;;0.20;0.20;;;;;;;3.08;100.00;96331.63;5049502;28;20044;-76
2023/01/10 02:35:17;;;;;;;0.20;0.20;;;;;;;3.11;100.00;96340.97;5050289;28;20044;-76
2023/01/10 02:38:27;;;;;;;0.20;0.20;;;;;;;3.10;100.00;96341.97;5045885;28;20044;-75
2023/01/10 02:41:29;;;;;;;0.20;0.20;;;;;;;3.07;100.00;96341.38;5049920;28;20693;-76
2023/01/10 02:44:33;;;;;;;0.20;0.20;;;;;;;3.04;100.00;96333.06;5053457;28;20196;-76
2023/01/10 02:47:19;;;;;;;0.20;0.20;;;;;;;3.00;100.00;96332.63;5052539;28;20102;-76
2023/01/10 02:50:46;;;;;;;0.10;0.10;;;;;;;3.06;100.00;96334.47;5051391;28;20398;-76
2023/01/10 02:53:39;;;;;;;0.17;0.17;;;;;;;3.00;100.00;96337.09;5053616;28;20035;-76
2023/01/10 02:56:34;;;;;;;0.20;0.20;;;;;;;3.09;100.00;96338.53;5064997;28;20383;-75
2023/01/10 02:59:40;;;;;;;0.20;0.20;;;;;;;3.11;100.00;96341.78;5053897;28;20290;-76
2023/01/10 03:02:29;;;;;;;0.20;0.20;;;;;;;3.08;100.00;96353.56;5051061;28;20056;-75
2023/01/10 03:05:48;;;;;;;0.20;0.20;;;;;;;3.06;100.00;96350.34;5055070;28;21262;-76
2023/01/10 03:09:30;;;;;;;0.10;0.10;;;;;;;3.06;100.00;96357.44;5065416;28;20036;-76
2023/01/10 03:12:26;;;;;;;0.20;0.20;;;;;;;3.10;100.00;96361.28;4963228;28;20441;-76
2023/01/10 03:15:17;;;;;;;0.20;0.20;;;;;;;3.14;100.00;96364.38;5045278;28;20049;-75
2023/01/10 03:18:09;;;;;;;0.20;0.20;;;;;;;3.12;100.00;96371.69;5049912;28;20577;-75
2023/01/10 03:20:57;;;;;;;0.20;0.20;;;;;;;3.20;100.00;96379.41;5053618;28;20067;-76
2023/01/10 03:23:46;;;;;;;0.20;0.20;;;;;;;3.19;100.00;96385.69;5050816;28;20330;-77
2023/01/10 03:26:44;;;;;;;0.20;0.20;;;;;;;3.22;100.00;96385.31;5053215;28;20568;-75
2023/01/10 03:29:41;;;;;;;0.20;0.20;;;;;;;3.23;100.00;96386.94;5053790;28;20444;-76
2023/01/10 03:32:30;;;;;;;0.20;0.20;;;;;;;3.27;100.00;96388.97;5051507;28;20046;-75
2023/01/10 03:35:21;;;;;;;0.20;0.20;;;;;;;3.18;100.00;96394.66;5030203;28;20048;-77
2023/01/10 03:38:37;;;;;;;0.20;0.20;;;;;;;3.18;100.00;96395.47;5050050;28;20037;-76
2023/01/10 03:41:50;;;;;;;0.20;0.20;;;;;;;3.22;100.00;96411.75;5049395;28;20032;-73
2023/01/10 03:44:45;;;;;;;0.10;0.10;;;;;;;3.19;100.00;96410.34;5051062;28;20486;-76
2023/01/10 03:47:40;;;;;;;0.20;0.20;;;;;;;3.20;100.00;96421.72;5052096;28;20385;-75
2023/01/10 03:50:28;;;;;;;0.20;0.20;;;;;;;3.17;100.00;96430.88;5044812;28;20032;-76
2023/01/10 03:53:14;;;;;;;0.20;0.20;;;;;;;3.15;100.00;96421.53;5048849;28;20543;-76
2023/01/10 03:56:00;;;;;;;0.20;0.20;;;;;;;3.17;100.00;96444.09;5050176;28;20500;-77
2023/01/10 03:58:46;;;;;;;0.20;0.20;;;;;;;3.12;100.00;96435.16;5033897;28;20041;-76
2023/01/10 04:01:32;;;;;;;0.20;0.20;;;;;;;3.07;100.00;96435.75;5031857;28;20389;-75
2023/01/10 04:04:18;;;;;;;0.20;0.20;;;;;;;3.08;100.00;96432.91;5034697;28;20113;-76
2023/01/10 04:07:04;;;;;;;0.20;0.20;;;;;;;3.11;100.00;96441.44;5023261;28;20309;-75
2023/01/10 04:09:50;;;;;;;0.20;0.20;;;;;;;3.06;100.00;96434.13;5033542;28;20059;-76
2023/01/10 04:12:36;;;;;;;0.20;0.20;;;;;;;3.16;100.00;96445.09;5022320;28;20516;-76
2023/01/10 04:15:22;;;;;;;0.20;0.20;;;;;;;3.18;100.00;96447.53;5033205;28;20040;-75
2023/01/10 04:18:07;;;;;;;0.20;0.20;;;;;;;3.11;100.00;96459.94;5034044;28;20036;-77
2023/01/10 04:20:53;;;;;;;0.20;0.20;;;;;;;3.08;100.00;96459.34;5032475;28;20087;-77
2023/01/10 04:23:39;;;;;;;0.20;0.20;;;;;;;3.06;100.00;96452.63;5048319;28;20256;-77
2023/01/10 04:26:25;;;;;;;0.20;0.20;;;;;;;3.06;100.00;96461.38;5031107;28;20335;-77
2023/01/10 04:29:11;;;;;;;0.20;0.20;;;;;;;3.12;100.00;96469.53;5018328;28;20572;-77
2023/01/10 04:31:57;;;;;;;0.10;0.10;;;;;;;3.07;100.00;96473.56;5034877;28;20549;-75
2023/01/10 04:34:43;;;;;;;0.20;0.20;;;;;;;3.05;100.00;96477.44;5035209;28;20191;-76
2023/01/10 04:37:28;;;;;;;0.20;0.20;;;;;;;3.11;100.00;96481.09;5036136;28;20370;-75
2023/01/10 04:40:18;;;;;;;0.20;0.20;;;;;;;3.12;100.00;96477.47;5037718;28;20808;-77
2023/01/10 04:43:04;;;;;;;0.20;0.20;;;;;;;3.13;100.00;96493.13;5039979;28;20076;-77
2023/01/10 04:45:50;;;;;;;0.20;0.20;;;;;;;3.07;100.00;96492.09;5038952;28;20441;-76
2023/01/10 04:48:36;;;;;;;0.20;0.20;;;;;;;3.07;100.00;96515.06;5037059;28;20093;-77
2023/01/10 04:51:22;;;;;;;0.20;0.20;;;;;;;3.01;100.00;96506.09;5034869;28;20049;-76
2023/01/10 04:54:08;;;;;;;0.20;0.20;;;;;;;2.99;100.00;96510.78;5035193;28;20657;-76
2023/01/10 04:56:53;;;;;;;0.20;0.20;;;;;;;3.02;100.00;96522.78;5038311;28;20479;-78
2023/01/10 04:59:39;;;;;;;0.10;0.10;;;;;;;3.00;100.00;96525.63;5034187;28;20643;-76
2023/01/10 05:02:25;;;;;;;0.20;0.20;;;;;;;3.06;100.00;96524.81;5031918;28;20149;-77
2023/01/10 05:05:12;;;;;;;0.20;0.20;;;;;;;3.02;100.00;96520.94;5020043;28;20304;-77
2023/01/10 05:07:58;;;;;;;0.17;0.17;;;;;;;3.12;100.00;96538.28;5020954;28;20044;-75
2023/01/10 05:10:44;;;;;;;0.20;0.20;;;;;;;3.11;100.00;96533.97;5036742;28;20072;-75
2023/01/10 05:13:30;;;;;;;0.20;0.20;;;;;;;3.10;100.00;96538.44;5033215;28;20056;-77
2023/01/10 05:16:16;;;;;;;0.20;0.20;;;;;;;3.05;100.00;96543.53;5035487;28;20369;-77
2023/01/10 05:19:02;;;;;;;0.20;0.20;;;;;;;3.06;100.00;96545.16;5034308;28;20054;-77
2023/01/10 05:21:50;;;;;;;0.20;0.20;;;;;;;3.01;100.00;96531.72;5033194;28;20484;-77
2023/01/10 05:24:36;;;;;;;0.20;0.20;;;;;;;3.03;100.00;96540.25;5034181;28;20157;-75
2023/01/10 05:27:22;;;;;;;0.20;0.20;;;;;;;2.97;100.00;96533.97;5032691;28;20041;-78
2023/01/10 05:30:12;;;;;;;0.20;0.20;;;;;;;2.92;100.00;96544.31;5021246;28;20044;-77
2023/01/10 05:32:58;;;;;;;0.20;0.20;;;;;;;2.88;100.00;96537.81;5042204;28;20445;-74
2023/01/10 05:36:10;;;;;;;0.22;0.22;;;;;;;2.99;100.00;96547.78;5034520;28;20131;-76
2023/01/10 05:38:55;;;;;;;;;;;;;;;2.94;100.00;96559.97;5034106;28;20045;-77
2023/01/10 05:41:41;;;;;;;0.22;0.22;;;;;;;2.93;100.00;96556.50;5033943;28;20560;-77
2023/01/10 05:44:27;;;;;;;0.20;0.20;;;;;;;2.94;100.00;96552.84;5005199;28;20032;-74
2023/01/10 05:47:13;;;;;;;0.20;0.20;;;;;;;2.86;100.00;96560.94;5033774;28;20033;-74
2023/01/10 05:49:59;;;;;;;0.20;0.20;;;;;;;2.71;100.00;96569.00;5033570;28;20041;-76
2023/01/10 05:52:45;;;;;;;0.20;0.20;;;;;;;2.75;100.00;96588.75;5030881;28;20041;-75
2023/01/10 05:55:31;;;;;;;0.20;0.20;;;;;;;2.55;100.00;96589.66;5034585;28;20564;-77
2023/01/10 05:58:17;;;;;;;0.10;0.10;;;;;;;2.53;100.00;96592.50;5033224;28;20512;-77
2023/01/10 06:01:03;;;;;;;0.20;0.20;;;;;;;2.70;100.00;96595.63;5032590;28;20393;-75
2023/01/10 06:03:51;;;;;;;0.17;0.17;;;;;;;2.67;100.00;96590.75;5033887;28;20489;-74
2023/01/10 06:06:37;;;;;;;0.20;0.20;;;;;;;2.57;100.00;96609.63;5032055;28;20350;-76
2023/01/10 06:09:22;;;;;;;0.20;0.20;;;;;;;2.58;100.00;96600.66;5033035;28;20084;-74
2023/01/10 06:12:08;;;;;;;0.20;0.20;;;;;;;2.49;100.00;96597.38;5013499;28;20119;-74
2023/01/10 06:14:54;;;;;;;0.20;0.20;;;;;;;2.48;100.00;96606.28;5034749;28;20060;-76
2023/01/10 06:17:40;;;;;;;0.20;0.20;;;;;;;2.48;100.00;96611.56;5032653;28;20307;-75
2023/01/10 06:20:26;;;;;;;0.20;0.20;;;;;;;2.57;100.00;96612.25;5033141;28;20037;-75
2023/01/10 06:23:12;;;;;;;0.20;0.20;;;;;;;2.70;100.00;96619.41;5021141;28;20142;-76
2023/01/10 06:25:57;;;;;;;0.20;0.20;;;;;;;2.63;100.00;96634.41;5033802;28;20114;-75
2023/01/10 06:28:43;;;;;;;0.22;0.22;;;;;;;2.57;100.00;96637.81;5035144;28;20465;-74
2023/01/10 06:31:29;;;;;;;0.20;0.20;;;;;;;2.39;100.00;96648.88;5023123;28;20351;-74
2023/01/10 06:34:15;;;;;;;0.20;0.20;;;;;;;2.46;100.00;96637.38;5034911;28;20075;-76
2023/01/10 06:37:01;;;;;;;0.20;0.20;;;;;;;2.24;100.00;96636.59;5044883;28;20083;-75
2023/01/10 06:39:50;;;;;;;0.20;0.20;;;;;;;2.04;100.00;96629.53;5033434;28;20048;-75
2023/01/10 06:42:36;;;;;;;0.20;0.20;;;;;;;1.94;100.00;96632.47;5032112;28;20848;-75
2023/01/10 06:45:21;;;;;;;0.20;0.20;;;;;;;1.86;100.00;96622.88;5016970;28;20029;-76
2023/01/10 06:48:07;;;;;;;0.17;0.17;;;;;;;1.91;100.00;96646.88;5034809;28;20218;-76
2023/01/10 06:50:53;;;;;;;0.20;0.20;;;;;;;2.12;100.00;96656.63;5023701;28;20049;-75
2023/01/10 06:53:40;;;;;;;0.20;0.20;;;;;;;2.27;100.00;96658.38;5033037;28;20061;-76
2023/01/10 06:56:25;;;;;;;0.20;0.20;;;;;;;2.30;100.00;96668.53;5036031;28;20615;-75
2023/01/10 06:59:11;;;;;;;0.15;0.15;;;;;;;2.04;100.00;96682.34;5039660;28;20507;-76
2023/01/10 07:01:57;;;;;;;0.20;0.20;;;;;;;2.04;100.00;96690.25;5052847;28;20047;-75
2023/01/10 07:04:43;;;;;;;0.20;0.20;;;;;;;1.98;100.00;96698.94;5052102;28;20244;-74
2023/01/10 07:07:29;;;;;;;0.20;0.20;;;;;;;1.80;100.00;96697.53;5055115;28;20067;-76
2023/01/10 07:10:15;;;;;;;0.20;0.20;;;;;;;1.85;100.00;96700.41;5053799;28;20074;-76
2023/01/10 07:13:01;;;;;;;0.20;0.20;;;;;;;1.87;100.00;96692.34;5054676;28;20056;-74
2023/01/10 07:15:47;;;;;;;0.10;0.10;;;;;;;1.78;100.00;96704.81;5054053;28;20567;-76
2023/01/10 07:18:36;;;;;;;0.20;0.20;;;;;;;1.81;100.00;96708.91;5053720;28;20040;-75
2023/01/10 07:21:22;;;;;;;0.10;0.10;;;;;;;1.74;100.00;96708.84;5038932;28;20404;-75
2023/01/10 07:24:08;;;;;;;0.15;0.15;;;;;;;1.75;100.00;96721.03;5053054;28;20109;-76
2023/01/10 07:26:58;;;;;;;0.20;0.20;;;;;;;1.74;100.00;96719.38;5055626;28;20049;-75
2023/01/10 07:29:43;;;;;;;0.13;0.13;;;;;;;1.77;100.00;96718.19;5053212;28;20036;-75
2023/01/10 07:32:30;;;;;;;0.20;0.20;;;;;;;1.75;100.00;96728.94;5052699;28;20139;-73
2023/01/10 07:35:16;;;;;;;0.20;0.20;;;;;;;1.91;100.00;96741.91;5052210;28;20265;-76
2023/01/10 07:38:02;;;;;;;0.20;0.20;;;;;;;2.00;100.00;96745.22;5054466;28;20323;-73
2023/01/10 07:40:48;;;;;;;0.20;0.20;;;;;;;2.11;100.00;96738.66;5053122;28;20519;-76
2023/01/10 07:43:34;;;;;;;0.20;0.20;;;;;;;2.16;100.00;96734.41;5053392;28;20648;-76
2023/01/10 07:46:20;;;;;;;0.20;0.20;;;;;;;2.30;100.00;96740.66;5054192;28;20056;-76
2023/01/10 07:49:06;;;;;;;0.20;0.20;;;;;;;2.23;100.00;96739.78;5054033;28;20133;-75
2023/01/10 07:51:52;;;;;;;0.20;0.20;;;;;;;2.22;100.00;96754.81;5046045;28;20110;-76
2023/01/10 07:54:38;;;;;;;0.20;0.20;;;;;;;2.36;100.00;96750.47;5055525;28;20385;-75
2023/01/10 07:57:23;;;;;;;0.20;0.20;;;;;;;2.52;100.00;96744.09;5046936;28;20145;-74
2023/01/10 08:00:10;;;;;;;0.20;0.20;;;;;;;2.55;100.00;96764.03;5053982;28;20055;-74
2023/01/10 08:02:56;;;;;;;0.20;0.20;;;;;;;2.54;100.00;96762.41;5055150;28;20044;-74
2023/01/10 08:05:43;;;;;;;0.20;0.20;;;;;;;2.56;100.00;96760.38;5052183;28;20052;-76
2023/01/10 08:08:29;;;;;;;0.20;0.20;;;;;;;2.61;100.00;96756.16;5053430;28;20048;-74
2023/01/10 08:11:18;;;;;;;0.20;0.20;;;;;;;2.72;100.00;96765.38;5058107;28;20056;-76
2023/01/10 08:14:04;;;;;;;0.20;0.20;;;;;;;2.66;100.00;96766.97;5044891;28;20493;-75
2023/01/10 08:16:50;;;;;;;0.20;0.20;;;;;;;2.76;100.00;96766.66;5045846;28;20507;-74
2023/01/10 08:19:36;;;;;;;0.20;0.20;;;;;;;2.65;100.00;96775.91;5057570;28;20547;-74
2023/01/10 08:22:22;;;;;;;0.10;0.10;;;;;;;2.71;100.00;96766.38;5058026;28;20040;-76
2023/01/10 08:25:08;;;;;;;0.20;0.20;;;;;;;2.82;100.00;96776.47;5058585;28;20044;-76
2023/01/10 08:27:55;;;;;;;0.20;0.20;;;;;;;2.84;100.00;96771.78;5059744;28;20448;-76
2023/01/10 08:30:41;;;;;;;0.20;0.20;;;;;;;2.90;100.00;96764.91;5057349;28;20032;-75
2023/01/10 08:33:27;;;;;;;0.20;0.20;;;;;;;3.01;100.00;96773.13;5057851;28;20040;-74
2023/01/10 08:36:17;;;;;;;0.20;0.20;;;;;;;3.17;100.00;96790.53;5059435;28;20671;-75
2023/01/10 08:39:03;;;;;;;0.20;0.20;;;;;;;3.10;100.00;96770.31;5057641;28;20159;-75
2023/01/10 08:41:49;;;;;;;0.20;0.20;;;;;;;3.28;100.00;96789.19;5056283;28;20175;-74
2023/01/10 08:44:35;;;;;;;0.20;0.20;;;;;;;3.28;100.00;96786.53;5053879;28;20142;-76
2023/01/10 08:47:21;;;;;;;0.20;0.20;;;;;;;3.33;100.00;96799.97;5048557;28;20099;-76
2023/01/10 08:50:07;;;;;;;0.20;0.20;;;;;;;3.30;100.00;96793.25;5058982;28;20452;-74
2023/01/10 08:52:55;;;;;;;0.20;0.20;;;;;;;3.24;100.00;96785.28;5057627;28;20473;-75
2023/01/10 08:55:41;;;;;;;0.20;0.20;;;;;;;2.99;100.00;96793.66;5058508;28;20262;-73
2023/01/10 08:58:27;;;;;;;0.20;0.20;;;;;;;2.78;100.00;96796.34;5057918;28;20056;-75
2023/01/10 09:01:13;;;;;;;0.20;0.20;;;;;;;2.71;100.00;96806.84;5055694;28;20040;-76
2023/01/10 09:03:59;;;;;;;0.20;0.20;;;;;;;2.68;100.00;96798.50;5058956;28;20044;-76
2023/01/10 09:06:45;;;;;;;0.20;0.20;;;;;;;2.66;100.00;96813.72;5054356;28;20263;-76
2023/01/10 09:09:30;;;;;;;0.20;0.20;;;;;;;2.65;100.00;96797.06;5055772;28;20043;-75
2023/01/10 09:15:41;;;;;;;0.20;0.20;;;;;;;2.72;100.00;96812.94;5043278;28;20455;-77
2023/01/10 09:18:27;;;;;;;0.20;0.20;;;;;;;2.78;100.00;96826.22;5048697;28;20040;-77
2023/01/10 09:21:13;;;;;;;0.20;0.20;;;;;;;2.98;100.00;96823.75;5053781;28;20668;-77
2023/01/10 09:23:59;;;;;;;0.20;0.20;;;;;;;3.13;100.00;96821.03;5069911;28;20056;-77
2023/01/10 09:26:45;;;;;;;0.20;0.20;;;;;;;3.47;100.00;96827.34;5052353;28;20036;-76
2023/01/10 09:29:30;;;;;;;0.30;0.30;;;;;;;3.79;100.00;96825.88;5052085;28;20917;-76
2023/01/10 09:32:16;;;;;;;0.30;0.30;;;;;;;4.28;100.00;96838.06;5053749;28;20125;-77
2023/01/10 09:35:03;;;;;;;0.30;0.30;;;;;;;5.45;100.00;96824.31;5055804;28;20056;-76
2023/01/10 09:37:49;;;;;;;0.30;0.30;;;;;;;5.48;100.00;96834.50;5057063;28;20055;-77
2023/01/10 09:41:07;;;;;;;0.30;0.30;;;;;;;6.08;100.00;96837.84;5053576;28;20439;-75
2023/01/10 09:44:13;;;;;;;0.20;0.20;;;;;;;5.11;100.00;96847.38;5067964;28;20428;-76
2023/01/10 09:47:01;;;;;;;0.20;0.20;;;;;;;4.70;100.00;96852.88;5056610;28;20044;-75
2023/01/10 09:50:18;;;;;;;0.20;0.20;;;;;;;4.94;100.00;96846.97;5053499;28;20467;-76
2023/01/10 09:53:19;;;;;;;0.20;0.20;;;;;;;5.47;100.00;96846.94;5055264;28;20040;-75
2023/01/10 09:56:07;;;;;;;0.20;0.20;;;;;;;5.58;100.00;96843.66;5055989;28;20574;-75
2023/01/10 09:58:54;;;;;;;0.20;0.20;;;;;;;6.42;100.00;96848.09;5054137;28;20129;-76
2023/01/10 10:01:39;;;;;;;0.20;0.20;;;;;;;6.17;100.00;96841.88;5065013;28;20040;-76
2023/01/10 10:04:36;;;;;;;0.20;0.20;;;;;;;6.11;100.00;96848.84;5053457;28;20387;-76
2023/01/10 10:07:21;;;;;;;0.20;0.20;;;;;;;5.42;100.00;96852.06;5052535;28;20043;-77
2023/01/10 10:10:22;;;;;;;0.20;0.20;;;;;;;5.17;100.00;96846.56;5052677;28;20523;-76
2023/01/10 10:13:25;;;;;;;0.20;0.20;;;;;;;5.23;100.00;96853.72;5053985;28;20040;-75
2023/01/10 10:16:46;;;;;;;0.20;0.20;;;;;;;4.90;100.00;96861.66;5053636;28;20055;-76
2023/01/10 10:19:49;;;;;;;0.20;0.20;;;;;;;4.64;100.00;96864.25;5052632;28;20712;-75
2023/01/10 10:22:54;;;;;;;0.20;0.20;;;;;;;4.79;100.00;96858.78;5039752;28;20603;-75
2023/01/10 10:25:52;;;;;;;0.20;0.20;;;;;;;4.54;100.00;96863.84;5050895;28;20048;-76
2023/01/10 10:29:05;;;;;;;0.20;0.20;;;;;;;4.58;100.00;96863.22;5045491;27;20066;-76
2023/01/10 10:32:24;;;;;;;0.20;0.20;;;;;;;4.54;100.00;96863.84;5051258;28;20036;-76
2023/01/10 10:35:24;;;;;;;0.20;0.20;;;;;;;4.93;100.00;96861.25;5053743;28;20097;-74
2023/01/10 10:38:21;;;;;;;0.20;0.20;;;;;;;4.42;100.00;96863.59;5054586;28;20040;-76
2023/01/10 10:41:16;;;;;;;0.20;0.20;;;;;;;4.28;100.00;96857.47;5053606;28;20319;-75
2023/01/10 10:44:26;;;;;;;0.20;0.20;;;;;;;4.66;100.00;96844.47;5053458;28;20332;-78
2023/01/10 10:47:15;;;;;;;0.30;0.30;;;;;;;6.60;100.00;96843.88;5054676;28;20045;-77
2023/01/10 10:50:16;;;;;;;0.20;0.20;;;;;;;7.50;100.00;96837.25;5052451;28;20285;-77
2023/01/10 10:53:03;;;;;;;0.20;0.20;;;;;;;6.60;100.00;96833.25;5056625;28;20560;-77
2023/01/10 10:55:50;;;;;;;0.20;0.20;;;;;;;6.40;100.00;96844.84;5053204;28;20420;-77
2023/01/10 10:58:41;;;;;;;0.10;0.10;;;;;;;6.00;100.00;96833.56;5043997;28;20121;-76
2023/01/10 11:01:27;;;;;;;;;;;;;;;5.36;100.00;96838.78;5054520;28;20079;-76
2023/01/10 11:04:17;;;;;;;0.20;0.20;;;;;;;5.20;100.00;96840.84;5058943;28;19920;-77
2023/01/10 11:07:03;;;;;;;0.20;0.20;;;;;;;5.65;100.00;96840.97;5055687;28;20135;-76
2023/01/10 11:12:44;;;;;;;0.30;0.30;;;;;;;5.90;100.00;96834.97;5054296;28;20036;-77
2023/01/10 11:15:39;;;;;;;0.20;0.20;;;;;;;6.88;100.00;96851.50;5052418;28;20048;-76
2023/01/10 11:18:27;;;;;;;0.20;0.20;;;;;;;7.63;100.00;96851.50;5055211;28;20051;-76
2023/01/10 11:21:16;;;;;;;0.20;0.20;;;;;;;8.84;100.00;96842.66;5054454;28;20036;-77
2023/01/10 11:24:02;;;;;;;0.20;0.20;;;;;;;7.99;100.00;96840.84;5058061;28;20465;-77
2023/01/10 11:26:50;;;;;;;0.20;0.20;;;;;;;7.07;100.00;96836.41;5053924;28;20677;-77
2023/01/10 11:29:39;;;;;;;0.20;0.20;;;;;;;6.05;100.00;96832.91;5046905;28;20410;-75
2023/01/10 11:32:35;;;;;;;0.17;0.17;;;;;;;5.69;100.00;96833.44;5044091;28;20045;-76
2023/01/10 11:35:35;;;;;;;0.20;0.20;;;;;;;5.67;100.00;96827.50;5052849;28;20141;-77
2023/01/10 11:38:23;;;;;;;0.22;0.22;;;;;;;5.50;100.00;96829.78;4700936;28;10000575;-77
2023/01/10 11:41:18;;;;;;;0.20;0.20;;;;;;;6.41;100.00;96827.84;5050419;28;20598;-75
2023/01/10 11:44:19;;;;;;;0.20;0.20;;;;;;;5.41;100.00;96828.38;5052875;28;20032;-76
2023/01/10 11:47:13;;;;;;;0.20;0.20;;;;;;;4.77;100.00;96834.31;5060531;28;20043;-77
2023/01/10 11:50:01;;;;;;;0.10;0.10;;;;;;;5.35;100.00;96815.91;5054246;28;20448;-76
2023/01/10 11:52:48;;;;;;;0.20;0.20;;;;;;;4.88;100.00;96834.50;5057914;28;20377;-76
2023/01/10 11:55:37;;;;;;;0.20;0.20;;;;;;;4.53;100.00;96831.22;5055357;28;20303;-76
2023/01/10 11:58:30;;;;;;;0.20;0.20;;;;;;;4.61;100.00;96838.16;5055031;28;20048;-77
2023/01/10 12:01:35;;;;;;;0.20;0.20;;;;;;;4.91;100.00;96825.34;5055060;28;20135;-77
2023/01/10 12:04:26;;;;;;;0.20;0.20;;;;;;;5.04;100.00;96820.84;5059647;28;20782;-76
2023/01/10 12:07:12;;;;;;;0.20;0.20;;;;;;;4.60;100.00;96839.19;5057286;28;20063;-77
2023/01/10 12:10:00;;;;;;;0.20;0.20;;;;;;;4.81;100.00;96816.97;5056691;28;20052;-75
2023/01/10 12:12:56;;;;;;;0.20;0.20;;;;;;;4.75;100.00;96816.78;5057036;28;20117;-77
2023/01/10 12:15:42;;;;;;;0.20;0.20;;;;;;;4.41;100.00;96801.84;5056226;28;20266;-76
2023/01/10 12:18:27;;;;;;;0.20;0.20;;;;;;;4.79;100.00;96803.09;5045657;28;20036;-76
2023/01/10 12:21:18;;;;;;;0.20;0.20;;;;;;;4.86;100.00;96801.28;5054772;28;20044;-77
2023/01/10 12:24:23;;;;;;;0.20;0.20;;;;;;;4.97;100.00;96792.69;5069658;28;20053;-77
2023/01/10 12:27:14;;;;;;;0.20;0.20;;;;;;;4.78;100.00;96804.94;5054962;28;20299;-76
2023/01/10 12:30:06;;;;;;;0.20;0.20;;;;;;;5.02;100.00;96792.91;5053727;28;20158;-77
2023/01/10 12:32:54;;;;;;;0.30;0.30;;;;;;;4.93;100.00;96779.03;5052151;28;20041;-76
2023/01/10 12:35:52;;;;;;;0.20;0.20;;;;;;;4.90;100.00;96782.09;5051760;28;20821;-77
2023/01/10 12:39:06;;;;;;;0.20;0.20;;;;;;;4.81;100.00;96799.22;5053691;28;20051;-75
2023/01/10 12:45:22;;;;;;;0.20;0.20;;;;;;;4.25;100.00;96798.75;5053614;28;20041;-76
2023/01/10 12:48:23;;;;;;;0.20;0.20;;;;;;;4.33;100.00;96778.19;5040706;28;20040;-76
2023/01/10 12:51:14;;;;;;;0.20;0.20;;;;;;;4.34;100.00;96798.34;5052198;28;20453;-75
2023/01/10 12:54:24;;;;;;;0.20;0.20;;;;;;;4.21;100.00;96808.13;5053722;28;20044;-74
2023/01/10 12:57:26;;;;;;;0.20;0.20;;;;;;;4.08;100.00;96793.00;5055764;28;20114;-75
2023/01/10 13:00:27;;;;;;;0.20;0.20;;;;;;;4.31;100.00;96795.28;5039683;28;20202;-75
2023/01/10 13:03:19;;;;;;;0.20;0.20;;;;;;;4.41;100.00;96790.41;5048897;28;20280;-77
2023/01/10 13:06:05;;;;;;;0.20;0.20;;;;;;;4.17;100.00;96807.69;5056312;28;20364;-74
2023/01/10 13:08:51;;;;;;;0.20;0.20;;;;;;;4.51;100.00;96814.69;5055342;28;20098;-75
2023/01/10 13:11:48;;;;;;;0.20;0.20;;;;;;;4.53;100.00;96810.03;5055894;28;20044;-76
2023/01/10 13:14:43;;;;;;;0.20;0.20;;;;;;;4.31;100.00;96805.91;5056369;28;20032;-77
2023/01/10 13:17:32;;;;;;;0.20;0.20;;;;;;;4.31;100.00;96792.66;5056134;28;20066;-76
2023/01/10 13:20:22;;;;;;;0.20;0.20;;;;;;;4.19;100.00;96811.75;5041799;28;20067;-76
2023/01/10 13:23:42;;;;;;;0.20;0.20;;;;;;;3.94;100.00;96807.19;5056735;28;20448;-75
2023/01/10 13:26:57;;;;;;;0.20;0.20;;;;;;;4.09;100.00;96811.34;5042473;28;20517;-76
2023/01/10 13:29:43;;;;;;;0.15;0.15;;;;;;;3.92;100.00;96804.75;5053701;28;20058;-77
2023/01/10 13:32:33;;;;;;;0.20;0.20;;;;;;;3.96;100.00;96807.81;5054946;28;20469;-77
2023/01/10 13:35:19;;;;;;;0.20;0.20;;;;;;;3.99;100.00;96802.13;5057017;28;20150;-77
2023/01/10 13:38:15;;;;;;;0.30;0.30;;;;;;;3.98;100.00;96808.44;5057339;28;20131;-75